Minerva Grace — SVBN7 — position and weather

sailwx.info

Track history (hours):
 
Tides and Currents Weather Stations Pressure Air Temp Water Temp Dewpoint Dewpoint Depression Visibility Wind Speed Wind Dir Waves Ship Positions

Minerva Grace

Last reported at 2017-Sep-24 16:35 UTC. Time now 2017-Sep-25 04:24 UTC.
Position N 36°22' W 012°47'.

Length 183 m; draft 10.1 m.

Type: Ship (hazmat cat A). MMSI: 215925000.

Date/timePositionNaut miles runAvg speedWind from/ knotsBaromVisibWave heightAir tempDewpointWater temp
2017-Sep-24 16:35N 36°22' W 012°47'411.8
2017-Sep-24 16:13N 36°21' W 012°41'311.8
2017-Sep-24 15:59N 36°20' W 012°38'812.2
2017-Sep-24 15:20N 36°19' W 012°28'412.2
2017-Sep-24 15:00N 36°19' W 012°23'612.3
2017-Sep-24 14:30N 36°18' W 012°16'612.2
2017-Sep-24 14:00N 36°16' W 012°08'612.7
2017-Sep-24 13:30N 36°15' W 012°01'612.9
2017-Sep-24 13:00N 36°15' W 011°53'612.9
2017-Sep-24 12:30N 36°13' W 011°45'612.6
2017-Sep-24 12:00N 36°13' W 011°37'612.6
2017-Sep-24 11:30N 36°12' W 011°29'612.7
2017-Sep-24 11:00N 36°11' W 011°22'612.8
2017-Sep-24 10:30N 36°10' W 011°14'612.6
2017-Sep-24 10:00N 36°09' W 011°06'612.4
2017-Sep-24 09:30N 36°08' W 010°58'612.6
2017-Sep-24 09:00N 36°07' W 010°51'612.7
2017-Sep-24 08:30N 36°06' W 010°43'612.8
2017-Sep-24 08:00N 36°05' W 010°35'713.0
2017-Sep-24 07:30N 36°04' W 010°27'612.9
2017-Sep-24 07:00N 36°03' W 010°19'612.9
2017-Sep-24 06:30N 36°02' W 010°12'612.9
2017-Sep-24 06:00N 36°01' W 010°04'612.9
2017-Sep-24 05:30N 35°60' W 009°56'713.0
2017-Sep-24 05:00N 35°59' W 009°48'612.7
2017-Sep-24 04:30N 35°58' W 009°40'612.5
2017-Sep-24 04:00N 35°57' W 009°32'912.9
2017-Sep-24 03:16N 35°57' W 009°21'406 8.1
2017-Sep-22 00:49N 37°14' W 001°04'512.2
2017-Sep-22 00:22N 37°17' W 000°58'512.7
2017-Sep-21 23:58N 37°20' W 000°53'612.8
2017-Sep-21 23:30N 37°24' W 000°48'612.7
2017-Sep-21 23:00N 37°28' W 000°42'612.8
2017-Sep-21 22:30N 37°33' W 000°36'912.7
2017-Sep-21 21:49N 37°40' W 000°29'412.5
2017-Sep-21 21:30N 37°43' W 000°26'1012.4
2017-Sep-21 20:42N 37°51' W 000°19'312.3
2017-Sep-21 20:29N 37°53' W 000°17'712.3
2017-Sep-21 19:57N 37°59' W 000°14'612.4
2017-Sep-21 19:30N 38°04' W 000°09'612.5
2017-Sep-21 19:00N 38°09' W 000°05'612.6
2017-Sep-21 18:30N 38°14' W 000°01'712.5
2017-Sep-21 17:59N 38°20' E 000°04'612.3
2017-Sep-21 17:30N 38°24' E 000°08'612.2
2017-Sep-21 17:00N 38°30' E 000°12'612.2
2017-Sep-21 16:30N 38°35' E 000°16'712.3
2017-Sep-21 15:57N 38°40' E 000°21'7012.0
2017-Sep-21 10:08N 39°45' E 000°54'612.5
2017-Sep-21 09:38N 39°51' E 000°56'412.3
2017-Sep-21 09:20N 39°55' E 000°57'412.3
2017-Sep-21 09:00N 39°59' E 000°58'612.2
2017-Sep-21 08:29N 40°05' E 000°59'612.0
2017-Sep-21 08:00N 40°11' E 000°60'611.9
2017-Sep-21 07:30N 40°17' E 001°01'612.1
2017-Sep-21 06:58N 40°23' E 001°02'612.6
2017-Sep-21 06:30N 40°29' E 001°04'612.7
2017-Sep-21 06:00N 40°35' E 001°05'612.6
2017-Sep-21 05:30N 40°41' E 001°07'1012.6
2017-Sep-21 04:41N 40°51' E 001°09'212.6
2017-Sep-21 04:30N 40°54' E 001°10'  
2017-Sep-15 21:41N 40°42' E 001°08'514.8
2017-Sep-15 21:20N 40°37' E 001°06'514.7
2017-Sep-15 20:59N 40°32' E 001°05'714.7
2017-Sep-15 20:30N 40°25' E 001°03'714.8
2017-Sep-15 20:00N 40°18' E 001°01'714.4
2017-Sep-15 19:30N 40°11' E 000°59'713.9
2017-Sep-15 18:59N 40°04' E 000°58'813.6
2017-Sep-15 18:23N 39°56' E 000°57'120 9.0
2017-Sep-15 05:09N 38°05' W 000°02'314.8
2017-Sep-15 04:57N 38°03' W 000°04'1214.8
2017-Sep-15 04:11N 37°54' W 000°13'314.8
2017-Sep-15 03:57N 37°51' W 000°15'714.8
2017-Sep-15 03:28N 37°45' W 000°20'715.0
2017-Sep-15 03:00N 37°40' W 000°25'715.0
2017-Sep-15 02:30N 37°33' W 000°30'814.9
2017-Sep-15 02:00N 37°28' W 000°37'715.0
2017-Sep-15 01:30N 37°23' W 000°44'714.8
2017-Sep-15 01:00N 37°18' W 000°51'814.9
2017-Sep-15 00:28N 37°13' W 000°59'1314.8
2017-Sep-14 23:37N 37°05' W 001°11'214.8
2017-Sep-14 23:30N 37°04' W 001°12'814.7
2017-Sep-14 22:59N 36°59' W 001°20'4214.9
2017-Sep-14 20:11N 36°30' W 001°58'415.8
2017-Sep-14 19:55N 36°28' W 002°02'  
Track history (hours):
 
Tides and Currents Weather Stations Pressure Air Temp Water Temp Dewpoint Dewpoint Depression Visibility Wind Speed Wind Dir Waves Ship Positions

Minerva Grace

Last reported at 2017-Sep-24 16:35 UTC. Time now 2017-Sep-25 04:24 UTC.
Position N 36°22' W 012°47'.

Length 183 m; draft 10.1 m.

Type: Ship (hazmat cat A). MMSI: 215925000.

Date/timePositionNaut miles runAvg speedWind from/ knotsBaromVisibWave heightAir tempDewpointWater temp
2017-Sep-24 16:35N 36°22' W 012°47'411.8
2017-Sep-24 16:13N 36°21' W 012°41'311.8
2017-Sep-24 15:59N 36°20' W 012°38'812.2
2017-Sep-24 15:20N 36°19' W 012°28'412.2
2017-Sep-24 15:00N 36°19' W 012°23'612.3
2017-Sep-24 14:30N 36°18' W 012°16'612.2
2017-Sep-24 14:00N 36°16' W 012°08'612.7
2017-Sep-24 13:30N 36°15' W 012°01'612.9
2017-Sep-24 13:00N 36°15' W 011°53'612.9
2017-Sep-24 12:30N 36°13' W 011°45'612.6
2017-Sep-24 12:00N 36°13' W 011°37'612.6
2017-Sep-24 11:30N 36°12' W 011°29'612.7
2017-Sep-24 11:00N 36°11' W 011°22'612.8
2017-Sep-24 10:30N 36°10' W 011°14'612.6
2017-Sep-24 10:00N 36°09' W 011°06'612.4
2017-Sep-24 09:30N 36°08' W 010°58'612.6
2017-Sep-24 09:00N 36°07' W 010°51'612.7
2017-Sep-24 08:30N 36°06' W 010°43'612.8
2017-Sep-24 08:00N 36°05' W 010°35'713.0
2017-Sep-24 07:30N 36°04' W 010°27'612.9
2017-Sep-24 07:00N 36°03' W 010°19'612.9
2017-Sep-24 06:30N 36°02' W 010°12'612.9
2017-Sep-24 06:00N 36°01' W 010°04'612.9
2017-Sep-24 05:30N 35°60' W 009°56'713.0
2017-Sep-24 05:00N 35°59' W 009°48'612.7
2017-Sep-24 04:30N 35°58' W 009°40'612.5
2017-Sep-24 04:00N 35°57' W 009°32'912.9
2017-Sep-24 03:16N 35°57' W 009°21'406 8.1
2017-Sep-22 00:49N 37°14' W 001°04'512.2
2017-Sep-22 00:22N 37°17' W 000°58'512.7
2017-Sep-21 23:58N 37°20' W 000°53'612.8
2017-Sep-21 23:30N 37°24' W 000°48'612.7
2017-Sep-21 23:00N 37°28' W 000°42'612.8
2017-Sep-21 22:30N 37°33' W 000°36'912.7
2017-Sep-21 21:49N 37°40' W 000°29'412.5
2017-Sep-21 21:30N 37°43' W 000°26'1012.4
2017-Sep-21 20:42N 37°51' W 000°19'312.3
2017-Sep-21 20:29N 37°53' W 000°17'712.3
2017-Sep-21 19:57N 37°59' W 000°14'612.4
2017-Sep-21 19:30N 38°04' W 000°09'612.5
2017-Sep-21 19:00N 38°09' W 000°05'612.6
2017-Sep-21 18:30N 38°14' W 000°01'712.5
2017-Sep-21 17:59N 38°20' E 000°04'612.3
2017-Sep-21 17:30N 38°24' E 000°08'612.2
2017-Sep-21 17:00N 38°30' E 000°12'612.2
2017-Sep-21 16:30N 38°35' E 000°16'712.3
2017-Sep-21 15:57N 38°40' E 000°21'7012.0
2017-Sep-21 10:08N 39°45' E 000°54'612.5
2017-Sep-21 09:38N 39°51' E 000°56'412.3
2017-Sep-21 09:20N 39°55' E 000°57'412.3
2017-Sep-21 09:00N 39°59' E 000°58'612.2
2017-Sep-21 08:29N 40°05' E 000°59'612.0
2017-Sep-21 08:00N 40°11' E 000°60'611.9
2017-Sep-21 07:30N 40°17' E 001°01'612.1
2017-Sep-21 06:58N 40°23' E 001°02'612.6
2017-Sep-21 06:30N 40°29' E 001°04'612.7
2017-Sep-21 06:00N 40°35' E 001°05'612.6
2017-Sep-21 05:30N 40°41' E 001°07'1012.6
2017-Sep-21 04:41N 40°51' E 001°09'212.6
2017-Sep-21 04:30N 40°54' E 001°10'  
2017-Sep-15 21:41N 40°42' E 001°08'514.8
2017-Sep-15 21:20N 40°37' E 001°06'514.7
2017-Sep-15 20:59N 40°32' E 001°05'714.7
2017-Sep-15 20:30N 40°25' E 001°03'714.8
2017-Sep-15 20:00N 40°18' E 001°01'714.4
2017-Sep-15 19:30N 40°11' E 000°59'713.9
2017-Sep-15 18:59N 40°04' E 000°58'813.6
2017-Sep-15 18:23N 39°56' E 000°57'120 9.0
2017-Sep-15 05:09N 38°05' W 000°02'314.8
2017-Sep-15 04:57N 38°03' W 000°04'1214.8
2017-Sep-15 04:11N 37°54' W 000°13'314.8
2017-Sep-15 03:57N 37°51' W 000°15'714.8
2017-Sep-15 03:28N 37°45' W 000°20'715.0
2017-Sep-15 03:00N 37°40' W 000°25'715.0
2017-Sep-15 02:30N 37°33' W 000°30'814.9
2017-Sep-15 02:00N 37°28' W 000°37'715.0
2017-Sep-15 01:30N 37°23' W 000°44'714.8
2017-Sep-15 01:00N 37°18' W 000°51'814.9
2017-Sep-15 00:28N 37°13' W 000°59'1314.8
2017-Sep-14 23:37N 37°05' W 001°11'214.8
2017-Sep-14 23:30N 37°04' W 001°12'814.7
2017-Sep-14 22:59N 36°59' W 001°20'4214.9
2017-Sep-14 20:11N 36°30' W 001°58'415.8
2017-Sep-14 19:55N 36°28' W 002°02'  

Dump ship's entire track history